Ellicott City, Maryland
Current Conditions -  °F | °C
As of 2:54 PM on Thursday 30 Oct 2014 (Local Time) from KBWI Reporting Station
Broken Clouds Broken Clouds  
Wind Chill: 57°   Ceiling: 6000
Heat Index: 57°   Visibility: 10mi
Dew Point: 37°   Wind: 10mph
Humidity: 47%   Direction: 340°NNW
Pressure: 30.01"   Gusts: NA
Location:  39.27°N, 76.8°W
Report Text: KBWI 301854Z 34009KT 10SM SCT048 BKN060 14/03 A3001 RMK AO2 SLP163 T01390028
Loading
Personal Weather Stations






























Interactive Weather Map
Tropical Storm Tracking
New forecast layout! Learn more

10-Day Weather Forecast

Advertisements
Track Severe Weather on mobile